createdAt,value
2017-07-09T00:00:07.058Z,15.99
2017-07-09T00:00:20.477Z,15.91
2017-07-09T00:00:34.006Z,15.91
2017-07-09T00:00:47.452Z,15.84
2017-07-09T00:01:00.948Z,15.84
2017-07-09T00:01:13.306Z,15.86
2017-07-09T00:01:26.203Z,15.81
2017-07-09T00:01:39.178Z,15.8
2017-07-09T00:01:52.761Z,15.8
2017-07-09T00:02:05.683Z,15.8
2017-07-09T00:02:18.572Z,15.83
2017-07-09T00:02:32.090Z,15.74
2017-07-09T00:02:45.594Z,15.68
2017-07-09T00:02:58.032Z,15.78
2017-07-09T00:03:11.479Z,15.65
2017-07-09T00:03:24.974Z,15.71
2017-07-09T00:03:37.882Z,15.75
2017-07-09T00:03:51.616Z,15.73
2017-07-09T00:04:05.091Z,15.74
2017-07-09T00:04:18.056Z,15.7
2017-07-09T00:04:31.535Z,15.71
2017-07-09T00:04:44.477Z,15.74
2017-07-09T00:04:57.895Z,15.6
2017-07-09T00:05:11.371Z,15.59
2017-07-09T00:05:24.313Z,15.65
2017-07-09T00:05:37.803Z,15.65
2017-07-09T00:05:51.229Z,15.58
2017-07-09T00:06:04.664Z,15.59
2017-07-09T00:06:18.101Z,15.65
2017-07-09T00:06:31.031Z,15.67
2017-07-09T00:06:44.495Z,15.59
2017-07-09T00:06:57.396Z,15.62
2017-07-09T00:07:09.758Z,15.58
2017-07-09T00:07:22.181Z,15.56
2017-07-09T00:07:35.133Z,15.56
2017-07-09T00:07:47.574Z,15.52
2017-07-09T00:08:00.479Z,15.59
2017-07-09T00:08:13.358Z,15.59
2017-07-09T00:08:26.812Z,15.56
2017-07-09T00:08:39.188Z,15.49
2017-07-09T00:08:52.869Z,15.51
2017-07-09T00:09:05.785Z,15.49
2017-07-09T00:09:18.701Z,15.44
2017-07-09T00:09:32.144Z,15.47
2017-07-09T00:09:45.577Z,15.47
2017-07-09T00:09:59.130Z,15.47
2017-07-09T00:10:12.564Z,15.45
2017-07-09T00:10:25.998Z,15.47
2017-07-09T00:10:38.910Z,15.45
2017-07-09T00:10:52.397Z,15.4
2017-07-09T00:11:05.325Z,15.44
2017-07-09T00:11:18.806Z,15.44
2017-07-09T00:11:31.723Z,15.43
2017-07-09T00:11:45.201Z,15.37
2017-07-09T00:11:58.196Z,15.4
2017-07-09T00:12:11.697Z,15.37
2017-07-09T00:12:25.146Z,15.35
2017-07-09T00:12:38.592Z,15.3
2017-07-09T00:12:52.052Z,15.31
2017-07-09T00:13:04.427Z,15.27
2017-07-09T00:13:17.940Z,15.4
2017-07-09T00:13:31.386Z,15.4
2017-07-09T00:13:44.313Z,15.38
2017-07-09T00:13:57.226Z,15.34
2017-07-09T00:14:09.586Z,15.4
2017-07-09T00:14:23.055Z,15.33
2017-07-09T00:14:35.976Z,15.35
2017-07-09T00:14:49.437Z,15.41
2017-07-09T00:15:02.866Z,15.35
2017-07-09T00:15:15.761Z,15.41
2017-07-09T00:15:29.182Z,15.49
2017-07-09T00:15:42.664Z,15.43
2017-07-09T00:15:55.541Z,15.49
2017-07-09T00:16:08.500Z,15.47
2017-07-09T00:16:21.946Z,15.44
2017-07-09T00:16:35.441Z,15.41
2017-07-09T00:16:48.381Z,15.47
2017-07-09T00:17:01.821Z,15.44
2017-07-09T00:17:14.803Z,15.47
2017-07-09T00:17:27.215Z,15.43
2017-07-09T00:17:40.107Z,15.47
2017-07-09T00:17:53.556Z,15.4
2017-07-09T00:18:06.983Z,15.47
2017-07-09T00:18:19.909Z,15.4
2017-07-09T00:18:32.285Z,15.43
2017-07-09T00:18:45.201Z,15.43
2017-07-09T00:18:58.132Z,15.44
2017-07-09T00:19:10.554Z,15.43
2017-07-09T00:19:23.531Z,15.4
2017-07-09T00:19:35.984Z,15.43
2017-07-09T00:19:49.417Z,15.47
2017-07-09T00:20:01.815Z,15.52
2017-07-09T00:20:14.223Z,15.43
2017-07-09T00:20:26.671Z,15.44
2017-07-09T00:20:40.148Z,15.4
2017-07-09T00:20:53.678Z,15.44
2017-07-09T00:21:07.153Z,15.47
2017-07-09T00:21:20.090Z,15.45
2017-07-09T00:21:32.967Z,15.43
2017-07-09T00:21:46.433Z,15.44
2017-07-09T00:21:58.801Z,15.44
2017-07-09T00:22:11.711Z,15.43
2017-07-09T00:22:24.093Z,15.44
2017-07-09T00:22:35.941Z,15.45
2017-07-09T00:22:48.919Z,15.31
2017-07-09T00:23:01.296Z,15.27
2017-07-09T00:23:12.095Z,15.34
2017-07-09T00:23:24.495Z,15.43
2017-07-09T00:23:36.297Z,15.35
2017-07-09T00:23:48.169Z,15.37
2017-07-09T00:24:00.593Z,15.37
2017-07-09T00:24:13.000Z,15.41
2017-07-09T00:24:26.561Z,15.27
2017-07-09T00:24:39.458Z,15.27
2017-07-09T00:24:52.365Z,15.33
2017-07-09T00:25:05.897Z,15.31
2017-07-09T00:25:19.352Z,15.38
2017-07-09T00:25:31.779Z,15.3
2017-07-09T00:25:45.210Z,15.4
2017-07-09T00:25:58.634Z,15.38
2017-07-09T00:26:12.096Z,15.37
2017-07-09T00:26:25.532Z,15.31
2017-07-09T00:26:38.953Z,15.37
2017-07-09T00:26:52.365Z,15.31
2017-07-09T00:27:05.796Z,15.31
2017-07-09T00:27:19.226Z,15.27
2017-07-09T00:27:32.160Z,15.37
2017-07-09T00:27:45.099Z,15.35
2017-07-09T00:27:58.536Z,15.25
2017-07-09T00:28:11.468Z,15.31
2017-07-09T00:28:24.942Z,15.19
2017-07-09T00:28:37.323Z,15.26
2017-07-09T00:28:50.962Z,15.23
2017-07-09T00:29:04.408Z,15.26
2017-07-09T00:29:17.849Z,15.33
2017-07-09T00:29:29.727Z,15.13
2017-07-09T00:29:42.636Z,15.31
2017-07-09T00:29:56.072Z,15.16
2017-07-09T00:30:08.998Z,15.16
2017-07-09T00:30:22.435Z,15.12
2017-07-09T00:30:35.379Z,15.18
2017-07-09T00:30:47.729Z,15.19
2017-07-09T00:31:01.195Z,15.16
2017-07-09T00:31:14.668Z,15.12
2017-07-09T00:31:27.852Z,15.1
2017-07-09T00:31:40.816Z,15.1
2017-07-09T00:31:54.205Z,15.08
2017-07-09T00:32:07.638Z,15.07
2017-07-09T00:32:20.608Z,15.07
2017-07-09T00:32:33.484Z,15.07
2017-07-09T00:32:46.405Z,15.1
2017-07-09T00:32:59.835Z,15.04
2017-07-09T00:33:12.739Z,15.01
2017-07-09T00:33:26.187Z,15.04
2017-07-09T00:33:39.565Z,15.07
2017-07-09T00:33:53.209Z,14.97
2017-07-09T00:34:06.160Z,14.97
2017-07-09T00:34:19.582Z,15.1
2017-07-09T00:34:33.080Z,14.98
2017-07-09T00:34:46.004Z,14.98
2017-07-09T00:34:59.462Z,14.98
2017-07-09T00:35:12.377Z,15
2017-07-09T00:35:25.353Z,15.02
2017-07-09T00:35:38.322Z,14.97
2017-07-09T00:35:51.849Z,14.98
2017-07-09T00:36:05.321Z,14.95
2017-07-09T00:36:18.795Z,14.97
2017-07-09T00:36:32.236Z,15.01
2017-07-09T00:36:45.686Z,14.89
2017-07-09T00:36:59.210Z,14.9
2017-07-09T00:37:12.618Z,14.93
2017-07-09T00:37:24.971Z,14.94
2017-07-09T00:37:37.928Z,15.02
2017-07-09T00:37:50.877Z,14.95
2017-07-09T00:38:03.821Z,14.89
2017-07-09T00:38:17.223Z,14.98
2017-07-09T00:38:30.664Z,14.98
2017-07-09T00:38:44.134Z,14.95
2017-07-09T00:38:58.349Z,14.94
2017-07-09T00:39:11.848Z,14.94
2017-07-09T00:39:25.325Z,14.93
2017-07-09T00:39:38.768Z,14.94
2017-07-09T00:39:52.233Z,14.87
2017-07-09T00:40:05.158Z,14.87
2017-07-09T00:40:18.624Z,14.9
2017-07-09T00:40:32.147Z,14.94
2017-07-09T00:40:45.646Z,14.93
2017-07-09T00:40:59.092Z,14.97
2017-07-09T00:41:12.516Z,14.93
2017-07-09T00:41:26.006Z,14.86
2017-07-09T00:41:38.353Z,14.93
2017-07-09T00:41:51.312Z,14.9
2017-07-09T00:42:04.223Z,14.93
2017-07-09T00:42:17.189Z,14.93
2017-07-09T00:42:28.508Z,14.8
2017-07-09T00:42:41.985Z,14.9
2017-07-09T00:42:54.967Z,14.82
2017-07-09T00:43:08.454Z,14.82
2017-07-09T00:43:21.405Z,14.87
2017-07-09T00:43:34.942Z,14.85
2017-07-09T00:43:47.858Z,14.86
2017-07-09T00:44:00.728Z,14.82
2017-07-09T00:44:14.247Z,14.77
2017-07-09T00:44:27.679Z,14.85
2017-07-09T00:44:41.100Z,14.83
2017-07-09T00:44:53.490Z,14.8
2017-07-09T00:45:05.869Z,14.79
2017-07-09T00:45:18.803Z,14.83
2017-07-09T00:45:32.342Z,14.75
2017-07-09T00:45:45.249Z,14.79
2017-07-09T00:45:58.650Z,14.71
2017-07-09T00:46:12.105Z,14.67
2017-07-09T00:46:25.564Z,14.69
2017-07-09T00:46:39.020Z,14.69
2017-07-09T00:46:51.929Z,14.75
2017-07-09T00:47:04.800Z,14.66
2017-07-09T00:47:17.265Z,14.67
2017-07-09T00:47:30.230Z,14.75
2017-07-09T00:47:43.175Z,14.7
2017-07-09T00:47:56.150Z,14.7
2017-07-09T00:48:09.612Z,14.74
2017-07-09T00:48:23.018Z,14.83
2017-07-09T00:48:35.954Z,14.75
2017-07-09T00:48:49.401Z,14.69
2017-07-09T00:49:02.862Z,14.79
2017-07-09T00:49:16.427Z,14.75
2017-07-09T00:49:29.397Z,14.77
2017-07-09T00:49:42.918Z,14.83
2017-07-09T00:49:56.388Z,14.79
2017-07-09T00:50:09.353Z,14.83
2017-07-09T00:50:22.283Z,14.67
2017-07-09T00:50:35.734Z,14.82
2017-07-09T00:50:49.204Z,14.89
2017-07-09T00:51:02.167Z,14.8
2017-07-09T00:51:14.521Z,14.71
2017-07-09T00:51:27.965Z,14.67
2017-07-09T00:51:40.334Z,14.82
2017-07-09T00:51:53.829Z,14.79
2017-07-09T00:52:06.751Z,14.7
2017-07-09T00:52:20.280Z,14.79
2017-07-09T00:52:33.688Z,14.77
2017-07-09T00:52:47.118Z,14.82
2017-07-09T00:53:00.606Z,14.77
2017-07-09T00:53:13.580Z,14.69
2017-07-09T00:53:27.054Z,14.8
2017-07-09T00:53:39.957Z,14.74
2017-07-09T00:53:53.430Z,14.7
2017-07-09T00:54:05.782Z,14.67
2017-07-09T00:54:19.243Z,14.71
2017-07-09T00:54:32.668Z,14.75
2017-07-09T00:54:46.088Z,14.71
2017-07-09T00:54:59.512Z,14.69
2017-07-09T00:55:12.504Z,14.74
2017-07-09T00:55:25.984Z,14.77
2017-07-09T00:55:38.817Z,14.66
2017-07-09T00:55:52.246Z,14.71
2017-07-09T00:56:05.742Z,14.7
2017-07-09T00:56:19.151Z,14.74
2017-07-09T00:56:32.599Z,14.71
2017-07-09T00:56:46.045Z,14.69
2017-07-09T00:56:59.574Z,14.75
2017-07-09T00:57:12.019Z,14.7
2017-07-09T00:57:25.584Z,14.75
2017-07-09T00:57:38.486Z,14.69
2017-07-09T00:57:51.383Z,14.69
2017-07-09T00:58:04.273Z,14.71
2017-07-09T00:58:17.205Z,14.7
2017-07-09T00:58:30.650Z,14.7
2017-07-09T00:58:44.143Z,14.77
2017-07-09T00:58:57.615Z,14.74
2017-07-09T00:59:10.462Z,14.69
2017-07-09T00:59:23.409Z,14.77
2017-07-09T00:59:36.840Z,14.71
2017-07-09T00:59:50.302Z,14.69
2017-07-09T01:00:02.659Z,14.7
2017-07-09T01:00:15.104Z,14.66
2017-07-09T01:00:28.568Z,14.69
2017-07-09T01:00:41.492Z,14.6
2017-07-09T01:00:54.932Z,14.71
2017-07-09T01:01:07.843Z,14.67
2017-07-09T01:01:20.738Z,14.63
2017-07-09T01:01:33.638Z,14.56
2017-07-09T01:01:47.057Z,14.59
2017-07-09T01:02:00.443Z,14.61
2017-07-09T01:02:13.379Z,14.66
2017-07-09T01:02:26.777Z,14.51
2017-07-09T01:02:39.661Z,14.56
2017-07-09T01:02:53.072Z,14.51
2017-07-09T01:03:06.514Z,14.57
2017-07-09T01:03:19.433Z,14.53
2017-07-09T01:03:32.346Z,14.56
2017-07-09T01:03:45.266Z,14.53
2017-07-09T01:03:58.190Z,14.49
2017-07-09T01:04:11.143Z,14.56
2017-07-09T01:04:24.570Z,14.51
2017-07-09T01:04:37.963Z,14.46
2017-07-09T01:04:50.879Z,14.6
2017-07-09T01:05:03.818Z,14.49
2017-07-09T01:05:16.175Z,14.53
2017-07-09T01:05:29.111Z,14.48
2017-07-09T01:05:42.523Z,14.53
2017-07-09T01:05:55.963Z,14.53
2017-07-09T01:06:09.470Z,14.48
2017-07-09T01:06:21.837Z,14.46
2017-07-09T01:06:34.787Z,14.49
2017-07-09T01:06:48.170Z,14.42
2017-07-09T01:07:01.038Z,14.49
2017-07-09T01:07:13.460Z,14.46
2017-07-09T01:07:26.960Z,14.48
2017-07-09T01:07:39.930Z,14.49
2017-07-09T01:07:52.850Z,14.48
2017-07-09T01:08:05.796Z,14.53
2017-07-09T01:08:18.698Z,14.42
2017-07-09T01:08:30.016Z,14.46
2017-07-09T01:08:42.374Z,14.51
2017-07-09T01:08:55.307Z,14.48
2017-07-09T01:09:09.109Z,14.46
2017-07-09T01:09:22.582Z,14.48
2017-07-09T01:09:36.073Z,14.53
2017-07-09T01:09:49.545Z,14.38
2017-07-09T01:10:02.954Z,14.48
2017-07-09T01:10:16.366Z,14.38
2017-07-09T01:10:29.821Z,14.42
2017-07-09T01:10:43.304Z,14.39
2017-07-09T01:10:55.714Z,14.38
2017-07-09T01:11:08.642Z,14.36
2017-07-09T01:11:21.605Z,14.42
2017-07-09T01:11:35.056Z,14.36
2017-07-09T01:11:48.574Z,14.38
2017-07-09T01:12:01.507Z,14.39
2017-07-09T01:12:14.978Z,14.41
2017-07-09T01:12:27.363Z,14.26
2017-07-09T01:12:40.323Z,14.26
2017-07-09T01:12:53.210Z,14.33
2017-07-09T01:13:05.607Z,14.31
2017-07-09T01:13:18.508Z,14.28
2017-07-09T01:13:31.395Z,14.31
2017-07-09T01:13:44.880Z,14.28
2017-07-09T01:13:58.341Z,14.31
2017-07-09T01:14:11.802Z,14.28
2017-07-09T01:14:25.235Z,14.3
2017-07-09T01:14:38.168Z,14.26
2017-07-09T01:14:51.113Z,14.3
2017-07-09T01:15:04.022Z,14.3
2017-07-09T01:15:17.032Z,14.28
2017-07-09T01:15:29.435Z,14.27
2017-07-09T01:15:42.347Z,14.27
2017-07-09T01:15:54.747Z,14.26
2017-07-09T01:16:08.234Z,14.27
2017-07-09T01:16:21.712Z,14.23
2017-07-09T01:16:35.165Z,14.27
2017-07-09T01:16:48.599Z,14.2
2017-07-09T01:17:01.559Z,14.21
2017-07-09T01:17:15.028Z,14.16
2017-07-09T01:17:28.496Z,14.23
2017-07-09T01:17:41.975Z,14.13
2017-07-09T01:17:54.866Z,14.16
2017-07-09T01:18:08.327Z,14.16
2017-07-09T01:18:21.801Z,14.15
2017-07-09T01:18:33.706Z,14.15
2017-07-09T01:18:46.593Z,14.15
2017-07-09T01:19:00.044Z,14.09
2017-07-09T01:19:12.961Z,14.11
2017-07-09T01:19:26.422Z,14.08
2017-07-09T01:19:39.895Z,14.03
2017-07-09T01:19:52.810Z,14.02
2017-07-09T01:20:05.761Z,14.09
2017-07-09T01:20:19.250Z,14.02
2017-07-09T01:20:32.128Z,14.05
2017-07-09T01:20:45.069Z,14.09
2017-07-09T01:20:58.024Z,14.08
2017-07-09T01:21:11.521Z,13.99
2017-07-09T01:21:24.955Z,14.03
2017-07-09T01:21:38.367Z,14.06
2017-07-09T01:21:51.333Z,14.02
2017-07-09T01:22:03.178Z,14.02
2017-07-09T01:22:16.123Z,14.03
2017-07-09T01:22:26.945Z,13.95
2017-07-09T01:22:38.821Z,14.01
2017-07-09T01:22:51.775Z,14.06
2017-07-09T01:23:04.163Z,14.05
2017-07-09T01:23:16.068Z,13.99
2017-07-09T01:23:28.425Z,14.02
2017-07-09T01:23:41.281Z,14.12
2017-07-09T01:23:54.770Z,13.97
2017-07-09T01:24:07.712Z,14.05
2017-07-09T01:24:22.040Z,14.01
2017-07-09T01:24:35.486Z,14.02
2017-07-09T01:24:48.501Z,14.06
2017-07-09T01:25:01.976Z,14.06
2017-07-09T01:25:15.370Z,13.97
2017-07-09T01:25:28.857Z,13.97
2017-07-09T01:25:41.762Z,13.97
2017-07-09T01:25:54.643Z,14.05
2017-07-09T01:26:07.563Z,14.05
2017-07-09T01:26:21.020Z,14.05
2017-07-09T01:26:34.477Z,13.99
2017-07-09T01:26:47.978Z,13.97
2017-07-09T01:27:01.428Z,14.02
2017-07-09T01:27:14.344Z,14.02
2017-07-09T01:27:27.803Z,14.02
2017-07-09T01:27:41.243Z,14.02
2017-07-09T01:27:54.210Z,14.03
2017-07-09T01:28:07.142Z,14.03
2017-07-09T01:28:20.016Z,14.02
2017-07-09T01:28:33.462Z,14.05
2017-07-09T01:28:46.856Z,14.01
2017-07-09T01:29:00.309Z,13.94
2017-07-09T01:29:13.484Z,14.02
2017-07-09T01:29:27.217Z,14.01
2017-07-09T01:29:40.121Z,14.01
2017-07-09T01:29:53.575Z,14.05
2017-07-09T01:30:07.065Z,14.06
2017-07-09T01:30:19.493Z,13.99
2017-07-09T01:30:32.406Z,14.01
2017-07-09T01:30:45.925Z,14.02
2017-07-09T01:30:59.352Z,13.93
2017-07-09T01:31:12.331Z,13.94
2017-07-09T01:31:25.808Z,13.9
2017-07-09T01:31:39.256Z,13.93
2017-07-09T01:31:52.708Z,14.01
2017-07-09T01:32:06.170Z,13.97
2017-07-09T01:32:19.617Z,14.02
2017-07-09T01:32:32.493Z,13.97
2017-07-09T01:32:45.441Z,13.95
2017-07-09T01:32:58.388Z,13.93
2017-07-09T01:33:11.855Z,13.91
2017-07-09T01:33:25.254Z,13.88
2017-07-09T01:33:37.678Z,13.9
2017-07-09T01:33:51.186Z,13.9
2017-07-09T01:34:04.147Z,13.84
2017-07-09T01:34:17.832Z,13.78
2017-07-09T01:34:31.250Z,13.93
2017-07-09T01:34:43.633Z,13.87
2017-07-09T01:34:56.567Z,13.91
2017-07-09T01:35:08.956Z,13.83
2017-07-09T01:35:22.401Z,13.88
2017-07-09T01:35:34.792Z,13.86
2017-07-09T01:35:47.233Z,13.79
2017-07-09T01:36:00.708Z,13.83
2017-07-09T01:36:14.147Z,13.84
2017-07-09T01:36:27.651Z,13.83
2017-07-09T01:36:40.509Z,13.76
2017-07-09T01:36:53.902Z,13.88
2017-07-09T01:37:07.326Z,13.87
2017-07-09T01:37:20.795Z,13.79
2017-07-09T01:37:33.180Z,13.79
2017-07-09T01:37:46.576Z,13.84
2017-07-09T01:37:59.492Z,13.81
2017-07-09T01:38:12.961Z,13.86
2017-07-09T01:38:26.437Z,13.81
2017-07-09T01:38:39.336Z,13.75
2017-07-09T01:38:52.254Z,13.75
2017-07-09T01:39:04.675Z,13.79
2017-07-09T01:39:17.098Z,13.76
2017-07-09T01:39:30.798Z,13.76
2017-07-09T01:39:44.266Z,13.78
2017-07-09T01:39:56.678Z,13.75
2017-07-09T01:40:09.074Z,13.73
2017-07-09T01:40:21.998Z,13.79
2017-07-09T01:40:34.349Z,13.72
2017-07-09T01:40:47.828Z,13.72
2017-07-09T01:41:01.272Z,13.72
2017-07-09T01:41:14.172Z,13.69
2017-07-09T01:41:27.588Z,13.75
2017-07-09T01:41:41.041Z,13.72
2017-07-09T01:41:54.487Z,13.69
2017-07-09T01:42:06.834Z,13.75
2017-07-09T01:42:20.321Z,13.83
2017-07-09T01:42:32.695Z,13.75
2017-07-09T01:42:46.149Z,13.72
2017-07-09T01:42:59.545Z,13.7
2017-07-09T01:43:12.943Z,13.68
2017-07-09T01:43:26.418Z,13.65
2017-07-09T01:43:39.872Z,13.73
2017-07-09T01:43:53.318Z,13.72
2017-07-09T01:44:06.221Z,13.69
2017-07-09T01:44:19.656Z,13.68
2017-07-09T01:44:33.157Z,13.68
2017-07-09T01:44:46.649Z,13.66
2017-07-09T01:45:00.130Z,13.72
2017-07-09T01:45:13.016Z,13.69
2017-07-09T01:45:25.991Z,13.65
2017-07-09T01:45:38.930Z,13.66
2017-07-09T01:45:52.357Z,13.7
2017-07-09T01:46:05.847Z,13.7
2017-07-09T01:46:18.716Z,13.69
2017-07-09T01:46:31.651Z,13.68
2017-07-09T01:46:44.590Z,13.69
2017-07-09T01:46:57.523Z,13.62
2017-07-09T01:47:10.354Z,13.68
2017-07-09T01:47:23.245Z,13.69
2017-07-09T01:47:36.633Z,13.65
2017-07-09T01:47:49.508Z,13.7
2017-07-09T01:48:02.921Z,13.68
2017-07-09T01:48:15.338Z,13.68
2017-07-09T01:48:28.832Z,13.68
2017-07-09T01:48:42.306Z,13.68
2017-07-09T01:48:55.747Z,13.69
2017-07-09T01:49:08.674Z,13.69
2017-07-09T01:49:21.572Z,13.7
2017-07-09T01:49:34.544Z,13.7
2017-07-09T01:49:47.506Z,13.73
2017-07-09T01:50:01.010Z,13.7
2017-07-09T01:50:14.478Z,13.69
2017-07-09T01:50:27.458Z,13.7
2017-07-09T01:50:40.947Z,13.73
2017-07-09T01:50:54.412Z,13.69
2017-07-09T01:51:07.890Z,13.7
2017-07-09T01:51:20.847Z,13.76
2017-07-09T01:51:33.749Z,13.73
2017-07-09T01:51:47.163Z,13.72
2017-07-09T01:52:00.602Z,13.76
2017-07-09T01:52:12.997Z,13.72
2017-07-09T01:52:25.966Z,13.72
2017-07-09T01:52:39.388Z,13.75
2017-07-09T01:52:52.837Z,13.66
2017-07-09T01:53:05.733Z,13.63
2017-07-09T01:53:19.213Z,13.65
2017-07-09T01:53:32.658Z,13.66
2017-07-09T01:53:45.071Z,13.7
2017-07-09T01:53:57.432Z,13.68
2017-07-09T01:54:09.850Z,13.72
2017-07-09T01:54:22.794Z,13.7
2017-07-09T01:54:35.520Z,13.68
2017-07-09T01:54:49.021Z,13.73
2017-07-09T01:55:01.924Z,13.66
2017-07-09T01:55:15.408Z,13.7
2017-07-09T01:55:28.341Z,13.72
2017-07-09T01:55:41.286Z,13.72
2017-07-09T01:55:54.788Z,13.65
2017-07-09T01:56:08.248Z,13.68
2017-07-09T01:56:21.778Z,13.7
2017-07-09T01:56:35.262Z,13.63
2017-07-09T01:56:47.625Z,13.66
2017-07-09T01:57:01.176Z,13.69
2017-07-09T01:57:14.655Z,13.65
2017-07-09T01:57:27.566Z,13.62
2017-07-09T01:57:40.433Z,13.68
2017-07-09T01:57:53.363Z,13.66
2017-07-09T01:58:06.805Z,13.66
2017-07-09T01:58:20.268Z,13.63
2017-07-09T01:58:33.248Z,13.69
2017-07-09T01:58:46.688Z,13.57
2017-07-09T01:58:59.579Z,13.66
2017-07-09T01:59:12.436Z,13.68
2017-07-09T01:59:25.975Z,13.63
2017-07-09T01:59:38.374Z,13.66
2017-07-09T01:59:51.291Z,13.69
2017-07-09T02:00:04.217Z,13.58
2017-07-09T02:00:17.126Z,13.57
2017-07-09T02:00:29.497Z,13.62
2017-07-09T02:00:42.922Z,13.65
2017-07-09T02:00:55.861Z,13.51
2017-07-09T02:01:09.278Z,13.69
2017-07-09T02:01:21.679Z,13.65
2017-07-09T02:01:35.114Z,13.62
2017-07-09T02:01:48.012Z,13.66
2017-07-09T02:02:01.450Z,13.66
2017-07-09T02:02:14.902Z,13.6
2017-07-09T02:02:27.829Z,13.65
2017-07-09T02:02:41.239Z,13.62
2017-07-09T02:02:54.674Z,13.55
2017-07-09T02:03:07.576Z,13.63
2017-07-09T02:03:19.455Z,13.66
2017-07-09T02:03:32.896Z,13.65
2017-07-09T02:03:46.379Z,13.69
2017-07-09T02:03:59.818Z,13.58
2017-07-09T02:04:12.699Z,13.68
2017-07-09T02:04:26.202Z,13.69
2017-07-09T02:04:39.658Z,13.68
2017-07-09T02:04:53.082Z,13.65
2017-07-09T02:05:06.004Z,13.66
2017-07-09T02:05:19.429Z,13.65
2017-07-09T02:05:32.850Z,13.68
2017-07-09T02:05:46.308Z,13.6
2017-07-09T02:05:58.709Z,13.69
2017-07-09T02:06:12.171Z,13.66
2017-07-09T02:06:25.062Z,13.66
2017-07-09T02:06:37.452Z,13.62
2017-07-09T02:06:50.385Z,13.66
2017-07-09T02:07:03.813Z,13.66
2017-07-09T02:07:17.262Z,13.7
2017-07-09T02:07:29.686Z,13.6
2017-07-09T02:07:43.137Z,13.68
2017-07-09T02:07:56.576Z,13.66
2017-07-09T02:08:09.533Z,13.57
2017-07-09T02:08:21.933Z,13.65
2017-07-09T02:08:34.896Z,13.58
2017-07-09T02:08:48.293Z,13.72
2017-07-09T02:09:01.227Z,13.65
2017-07-09T02:09:14.718Z,13.65
2017-07-09T02:09:28.153Z,13.66
2017-07-09T02:09:42.451Z,13.69
2017-07-09T02:09:55.947Z,13.7
2017-07-09T02:10:09.383Z,13.63
2017-07-09T02:10:22.867Z,13.68
2017-07-09T02:10:35.762Z,13.66
2017-07-09T02:10:49.218Z,13.7
2017-07-09T02:11:02.693Z,13.69
2017-07-09T02:11:15.599Z,13.7
2017-07-09T02:11:29.122Z,13.69
2017-07-09T02:11:42.546Z,13.72
2017-07-09T02:11:56.056Z,13.7
2017-07-09T02:12:08.976Z,13.7
2017-07-09T02:12:21.927Z,13.69
2017-07-09T02:12:35.411Z,13.7
2017-07-09T02:12:48.965Z,13.65
2017-07-09T02:13:02.452Z,13.75
2017-07-09T02:13:15.898Z,13.66
2017-07-09T02:13:29.404Z,13.7
2017-07-09T02:13:42.880Z,13.73
2017-07-09T02:13:56.295Z,13.69
2017-07-09T02:14:09.255Z,13.69
2017-07-09T02:14:22.219Z,13.68
2017-07-09T02:14:36.051Z,13.65
2017-07-09T02:14:49.464Z,13.69
2017-07-09T02:15:02.405Z,13.7
2017-07-09T02:15:15.325Z,13.72
2017-07-09T02:15:28.711Z,13.72
2017-07-09T02:15:42.125Z,13.7
2017-07-09T02:15:55.058Z,13.72
2017-07-09T02:16:08.574Z,13.69
2017-07-09T02:16:21.978Z,13.65
2017-07-09T02:16:34.979Z,13.68
2017-07-09T02:16:47.360Z,13.68
2017-07-09T02:17:00.791Z,13.68
2017-07-09T02:17:14.257Z,13.69
2017-07-09T02:17:27.731Z,13.66
2017-07-09T02:17:41.170Z,13.65
2017-07-09T02:17:54.603Z,13.65
2017-07-09T02:18:08.045Z,13.75
2017-07-09T02:18:20.991Z,13.66
2017-07-09T02:18:34.458Z,13.65
2017-07-09T02:18:47.360Z,13.69
2017-07-09T02:19:00.864Z,13.66
2017-07-09T02:19:13.751Z,13.68
2017-07-09T02:19:26.644Z,13.69
2017-07-09T02:19:40.047Z,13.57
2017-07-09T02:19:53.456Z,13.6
2017-07-09T02:20:06.910Z,13.68
2017-07-09T02:20:20.374Z,13.62
2017-07-09T02:20:33.273Z,13.62
2017-07-09T02:20:45.669Z,13.53
2017-07-09T02:20:59.153Z,13.65
2017-07-09T02:21:12.642Z,13.63
2017-07-09T02:21:25.555Z,13.6
2017-07-09T02:21:38.981Z,13.63
2017-07-09T02:21:52.447Z,13.65
2017-07-09T02:22:04.822Z,13.55
2017-07-09T02:22:16.634Z,13.62
2017-07-09T02:22:29.545Z,13.7
2017-07-09T02:22:41.918Z,13.63
2017-07-09T02:22:54.802Z,13.65
2017-07-09T02:23:06.622Z,13.62
2017-07-09T02:23:17.929Z,13.68
2017-07-09T02:23:30.314Z,13.69
2017-07-09T02:23:42.166Z,13.54
2017-07-09T02:23:54.531Z,13.7
2017-07-09T02:24:07.909Z,13.53
2017-07-09T02:24:20.343Z,13.65
2017-07-09T02:24:33.855Z,13.55
2017-07-09T02:24:47.279Z,13.6
2017-07-09T02:25:00.207Z,13.58
2017-07-09T02:25:12.582Z,13.66
2017-07-09T02:25:26.242Z,13.57
2017-07-09T02:25:39.137Z,13.57
2017-07-09T02:25:52.082Z,13.65
2017-07-09T02:26:04.430Z,13.68
2017-07-09T02:26:17.861Z,13.55
2017-07-09T02:26:30.781Z,13.63
2017-07-09T02:26:44.275Z,13.66
2017-07-09T02:26:57.169Z,13.58
2017-07-09T02:27:09.007Z,13.68
2017-07-09T02:27:22.476Z,13.58
2017-07-09T02:27:35.923Z,13.55
2017-07-09T02:27:47.743Z,13.55
2017-07-09T02:28:01.222Z,13.55
2017-07-09T02:28:14.187Z,13.54
2017-07-09T02:28:27.685Z,13.51
2017-07-09T02:28:40.617Z,13.57
2017-07-09T02:28:53.628Z,13.51
2017-07-09T02:29:06.014Z,13.57
2017-07-09T02:29:19.456Z,13.57
2017-07-09T02:29:32.903Z,13.58
2017-07-09T02:29:46.364Z,13.55
2017-07-09T02:29:59.839Z,13.65
2017-07-09T02:30:11.706Z,13.57
2017-07-09T02:30:24.095Z,13.6
2017-07-09T02:30:37.597Z,13.62
2017-07-09T02:30:49.982Z,13.5
2017-07-09T02:31:02.341Z,13.45
2017-07-09T02:31:14.722Z,13.51
2017-07-09T02:31:28.170Z,13.51
2017-07-09T02:31:40.516Z,13.6
2017-07-09T02:31:53.402Z,13.51
2017-07-09T02:32:06.938Z,13.5
2017-07-09T02:32:19.844Z,13.51
2017-07-09T02:32:32.229Z,13.45
2017-07-09T02:32:45.723Z,13.48
2017-07-09T02:32:58.104Z,13.4
2017-07-09T02:33:11.510Z,13.44
2017-07-09T02:33:23.847Z,13.45
2017-07-09T02:33:37.306Z,13.48
2017-07-09T02:33:50.729Z,13.4
2017-07-09T02:34:04.172Z,13.42
2017-07-09T02:34:16.025Z,13.48
2017-07-09T02:34:28.362Z,13.47
2017-07-09T02:34:41.824Z,13.5
2017-07-09T02:34:55.249Z,13.42
2017-07-09T02:35:08.699Z,13.36
2017-07-09T02:35:22.218Z,13.48
2017-07-09T02:35:35.123Z,13.35
2017-07-09T02:35:47.470Z,13.36
2017-07-09T02:36:00.432Z,13.35
2017-07-09T02:36:13.361Z,13.44
2017-07-09T02:36:26.252Z,13.36
2017-07-09T02:36:39.732Z,13.44
2017-07-09T02:36:52.672Z,13.36
2017-07-09T02:37:06.132Z,13.37
2017-07-09T02:37:19.611Z,13.4
2017-07-09T02:37:32.498Z,13.36
2017-07-09T02:37:46.000Z,13.36
2017-07-09T02:37:58.422Z,13.4
2017-07-09T02:38:11.896Z,13.39
2017-07-09T02:38:24.871Z,13.35
2017-07-09T02:38:38.360Z,13.35
2017-07-09T02:38:50.787Z,13.36
2017-07-09T02:39:03.165Z,13.35
2017-07-09T02:39:16.135Z,13.36
2017-07-09T02:39:28.507Z,13.35
2017-07-09T02:39:41.928Z,13.31
2017-07-09T02:39:54.833Z,13.32
2017-07-09T02:40:08.283Z,13.32
2017-07-09T02:40:31.520Z,13.32
2017-07-09T02:40:44.932Z,13.36
2017-07-09T02:40:58.460Z,13.39
2017-07-09T02:41:11.363Z,13.32
2017-07-09T02:41:24.826Z,13.35
2017-07-09T02:41:38.343Z,13.32
2017-07-09T02:41:50.715Z,13.37
2017-07-09T02:42:04.136Z,13.31
2017-07-09T02:42:16.494Z,13.37
2017-07-09T02:42:29.416Z,13.32
2017-07-09T02:42:42.333Z,13.37
2017-07-09T02:42:54.744Z,13.37
2017-07-09T02:43:07.740Z,13.42
2017-07-09T02:43:21.232Z,13.4
2017-07-09T02:43:34.160Z,13.35
2017-07-09T02:43:47.048Z,13.45
2017-07-09T02:43:59.959Z,13.44
2017-07-09T02:44:12.853Z,13.44
2017-07-09T02:44:25.809Z,13.47
2017-07-09T02:44:38.747Z,13.45
2017-07-09T02:44:52.229Z,13.44
2017-07-09T02:45:05.112Z,13.5
2017-07-09T02:45:18.045Z,13.45
2017-07-09T02:45:31.530Z,13.47
2017-07-09T02:45:44.429Z,13.45
2017-07-09T02:45:56.850Z,13.44
2017-07-09T02:46:10.401Z,13.36
2017-07-09T02:46:22.803Z,13.4
2017-07-09T02:46:36.209Z,13.45
2017-07-09T02:46:49.211Z,13.45
2017-07-09T02:47:02.688Z,13.42
